Time;durP1;ratioP1;P1;durP2;ratioP2;P2;SDS_P1;SDS_P2;PMS_P1;PMS_P2;Temp;Humidity;BMP_temperature;BMP_pressure;BME280_temperature;BME280_humidity;BME280_pressure;Samples;Min_cycle;Max_cycle;Signal;HPM_P1;HPM_P2
2022/04/26 03:37:05;;;;;;;1999.90;999.90;;;9.70;99.90;;;;;;4995148;28;20457;-67
2022/04/26 03:39:34;;;;;;;1999.90;999.90;;;9.80;99.90;;;;;;4995003;28;20468;-68
2022/04/26 03:42:02;;;;;;;1999.90;999.90;;;9.90;99.90;;;;;;4994830;28;20922;-67
2022/04/26 03:44:28;;;;;;;1999.90;999.90;;;10.00;99.90;;;;;;4994912;28;20416;-68
2022/04/26 03:46:54;;;;;;;1999.90;999.90;;;10.00;99.90;;;;;;4994792;28;20436;-67
2022/04/26 03:49:21;;;;;;;1999.90;999.90;;;10.00;99.90;;;;;;4994994;28;20491;-68
2022/04/26 03:51:46;;;;;;;1999.90;999.90;;;10.00;99.90;;;;;;4994771;28;20774;-68
2022/04/26 03:54:12;;;;;;;1999.90;999.90;;;10.00;99.90;;;;;;4994836;28;20419;-68
2022/04/26 03:56:37;;;;;;;1999.90;999.90;;;10.00;99.90;;;;;;4994783;28;20657;-68
2022/04/26 03:59:03;;;;;;;1999.90;999.90;;;10.00;99.90;;;;;;4994656;28;20201;-68
2022/04/26 04:01:28;;;;;;;1999.90;999.90;;;10.00;99.90;;;;;;4994748;28;20227;-68
2022/04/26 04:03:54;;;;;;;1999.90;999.90;;;10.00;99.90;;;;;;4994745;28;20177;-68
2022/04/26 04:06:19;;;;;;;1999.90;999.90;;;9.90;99.90;;;;;;4994752;28;20183;-68
2022/04/26 04:08:45;;;;;;;1999.90;999.90;;;9.90;99.90;;;;;;4994727;28;20200;-68
2022/04/26 04:11:11;;;;;;;1999.90;999.90;;;9.90;99.90;;;;;;4994792;28;20208;-69
2022/04/26 04:13:36;;;;;;;1999.90;999.90;;;10.00;99.90;;;;;;4994994;28;20185;-68
2022/04/26 04:16:02;;;;;;;1999.90;999.90;;;10.00;99.90;;;;;;4994625;28;20610;-68
2022/04/26 04:21:12;;;;;;;1999.90;999.90;;;10.10;99.90;;;;;;4994811;28;20172;-68
2022/04/26 04:23:38;;;;;;;1999.90;999.90;;;10.10;99.90;;;;;;4994540;28;20408;-68
2022/04/26 04:26:04;;;;;;;1999.90;999.90;;;10.10;99.90;;;;;;4994185;28;20177;-68
2022/04/26 04:28:34;;;;;;;1999.90;999.90;;;10.20;99.90;;;;;;4994284;28;20807;-68
2022/04/26 04:31:00;;;;;;;1999.90;999.90;;;10.10;99.90;;;;;;4994268;28;20436;-68
2022/04/26 04:33:26;;;;;;;1999.90;999.90;;;10.00;99.90;;;;;;4994502;28;20504;-68
2022/04/26 04:35:52;;;;;;;1999.90;999.90;;;10.00;99.90;;;;;;4994202;28;20778;-68
2022/04/26 04:38:17;;;;;;;1999.90;999.90;;;10.00;99.90;;;;;;4993860;28;20212;-68
2022/04/26 04:40:43;;;;;;;1999.90;999.90;;;10.00;99.90;;;;;;4994215;28;20176;-68
2022/04/26 04:43:11;;;;;;;1999.90;999.90;;;10.00;99.90;;;;;;4994190;28;20173;-67
2022/04/26 04:45:36;;;;;;;1999.90;999.90;;;10.00;99.90;;;;;;4993966;28;20176;-68
2022/04/26 04:48:05;;;;;;;1999.90;999.90;;;10.00;99.90;;;;;;4993925;28;20436;-68
2022/04/26 04:50:32;;;;;;;1999.90;999.90;;;10.10;99.90;;;;;;4994035;28;20190;-68
2022/04/26 04:52:58;;;;;;;1999.90;999.90;;;10.00;99.90;;;;;;4995158;28;20455;-68
2022/04/26 04:55:24;;;;;;;1999.90;999.90;;;10.00;99.90;;;;;;4995220;28;21199;-68
2022/04/26 04:57:49;;;;;;;1999.90;999.90;;;10.00;99.90;;;;;;4994884;28;20455;-68
2022/04/26 05:00:15;;;;;;;1999.90;999.90;;;10.00;99.90;;;;;;4995061;28;20408;-68
2022/04/26 05:02:41;;;;;;;1999.90;999.90;;;9.90;99.90;;;;;;4994952;28;20526;-68
2022/04/26 05:05:07;;;;;;;1999.90;999.90;;;9.80;99.90;;;;;;4993944;28;20411;-68
2022/04/26 05:07:32;;;;;;;1999.90;999.90;;;9.70;99.90;;;;;;4994008;28;20720;-68
2022/04/26 05:09:58;;;;;;;1999.90;999.90;;;9.70;99.90;;;;;;4994585;28;20420;-68
2022/04/26 05:12:23;;;;;;;1999.90;999.90;;;9.70;99.90;;;;;;4994673;28;20171;-68
2022/04/26 05:14:49;;;;;;;1999.90;999.90;;;9.70;99.90;;;;;;4994710;28;20258;-68
2022/04/26 05:17:14;;;;;;;1999.90;999.90;;;9.60;99.90;;;;;;4993399;28;20688;-68
2022/04/26 05:19:40;;;;;;;1999.90;999.90;;;9.70;99.90;;;;;;4993148;28;20215;-68
2022/04/26 05:22:09;;;;;;;1999.90;999.90;;;9.60;99.90;;;;;;4993139;28;20175;-68
2022/04/26 05:24:54;;;;;;;1999.90;999.90;;;9.50;99.90;;;;;;4992844;28;20172;-68
2022/04/26 05:27:23;;;;;;;1999.90;999.90;;;9.50;99.90;;;;;;4993037;28;20848;-67
2022/04/26 05:29:49;;;;;;;1999.90;999.90;;;9.40;99.90;;;;;;4993043;28;20411;-68
2022/04/26 05:32:22;;;;;;;1999.90;999.90;;;9.30;99.90;;;;;;4992981;28;20445;-68
2022/04/26 05:34:55;;;;;;;1999.90;999.90;;;9.20;99.90;;;;;;4992616;28;20781;-68
2022/04/26 05:37:21;;;;;;;1999.90;999.90;;;9.10;99.90;;;;;;4992845;28;20833;-68
2022/04/26 05:39:46;;;;;;;1999.90;999.90;;;9.00;99.90;;;;;;4993436;28;20461;-68
2022/04/26 05:42:12;;;;;;;1999.90;999.90;;;8.90;99.90;;;;;;4994132;28;20198;-68
2022/04/26 05:44:42;;;;;;;1999.90;999.90;;;9.00;99.90;;;;;;4994629;28;20259;-68
2022/04/26 05:47:08;;;;;;;1999.90;999.90;;;8.90;99.90;;;;;;4993848;28;20730;-68
2022/04/26 05:49:35;;;;;;;1999.90;999.90;;;8.80;99.90;;;;;;4993250;28;20504;-68
2022/04/26 05:52:01;;;;;;;1999.90;999.90;;;8.70;99.90;;;;;;4993311;28;20417;-67
2022/04/26 05:54:27;;;;;;;1999.90;999.90;;;8.60;99.90;;;;;;4993230;28;20422;-68
2022/04/26 05:56:53;;;;;;;1999.90;999.90;;;8.60;99.90;;;;;;4993256;28;20442;-68
2022/04/26 05:59:20;;;;;;;1999.90;999.90;;;8.60;99.90;;;;;;4993244;28;20909;-68
2022/04/26 06:01:46;;;;;;;1999.90;999.90;;;8.50;99.90;;;;;;4993376;28;20407;-68
2022/04/26 06:04:11;;;;;;;1999.90;999.90;;;8.50;99.90;;;;;;4992788;28;20418;-68
2022/04/26 06:06:37;;;;;;;1999.90;999.90;;;8.50;99.90;;;;;;4993439;28;20412;-67
2022/04/26 06:09:03;;;;;;;1999.90;999.90;;;8.40;99.90;;;;;;4993431;28;20167;-68
2022/04/26 06:11:29;;;;;;;1999.90;999.90;;;8.40;99.90;;;;;;4993217;28;20173;-68
2022/04/26 06:13:54;;;;;;;1999.90;999.90;;;8.50;99.90;;;;;;4991740;28;20425;-68
2022/04/26 06:16:20;;;;;;;1999.90;999.90;;;8.50;99.90;;;;;;4994804;28;20699;-67
2022/04/26 06:18:46;;;;;;;1999.90;999.90;;;8.60;99.90;;;;;;4997061;28;20292;-68
2022/04/26 06:21:11;;;;;;;1999.90;999.90;;;8.50;99.90;;;;;;4997092;28;20177;-68
2022/04/26 06:23:37;;;;;;;1999.90;999.90;;;8.50;99.90;;;;;;4996566;28;20166;-68
2022/04/26 06:26:03;;;;;;;1999.90;999.90;;;8.40;99.90;;;;;;4996148;28;20218;-68
2022/04/26 06:28:28;;;;;;;1999.90;999.90;;;8.40;99.90;;;;;;4996226;28;20747;-68
2022/04/26 06:30:55;;;;;;;1999.90;999.90;;;8.40;99.90;;;;;;4996335;28;20177;-67
2022/04/26 06:33:20;;;;;;;1999.90;999.90;;;8.40;99.90;;;;;;4996232;28;20176;-68
2022/04/26 06:35:46;;;;;;;1999.90;999.90;;;8.40;99.90;;;;;;4996005;28;20407;-67
2022/04/26 06:38:12;;;;;;;1999.90;999.90;;;8.40;99.90;;;;;;4995882;28;20754;-68
2022/04/26 06:40:37;;;;;;;1999.90;999.90;;;8.40;99.90;;;;;;5001833;28;20166;-67
2022/04/26 06:43:03;;;;;;;1999.90;999.90;;;8.40;99.90;;;;;;5015459;28;20522;-68
2022/04/26 06:45:29;;;;;;;1999.90;999.90;;;8.30;99.90;;;;;;5014867;28;20201;-67
2022/04/26 06:47:54;;;;;;;1999.90;999.90;;;8.40;99.90;;;;;;5015521;28;20441;-67
2022/04/26 06:50:21;;;;;;;1999.90;999.90;;;8.40;99.90;;;;;;5015583;28;20601;-68
2022/04/26 06:52:47;;;;;;;1999.90;999.90;;;8.40;99.90;;;;;;5015653;28;20647;-68
2022/04/26 06:55:12;;;;;;;1999.90;999.90;;;8.40;99.90;;;;;;5015136;28;20416;-68
2022/04/26 06:57:38;;;;;;;1999.90;999.90;;;8.50;99.90;;;;;;5015693;28;20270;-68
2022/04/26 07:00:06;;;;;;;1999.90;999.90;;;8.50;99.90;;;;;;5015992;28;20509;-68
2022/04/26 07:02:32;;;;;;;1999.90;999.90;;;8.50;99.90;;;;;;5015868;28;20424;-68
2022/04/26 07:04:57;;;;;;;1999.90;999.90;;;8.60;99.90;;;;;;5015515;28;20415;-68
2022/04/26 07:07:23;;;;;;;1999.90;999.90;;;8.60;99.90;;;;;;5015098;28;20484;-68
2022/04/26 07:09:49;;;;;;;1999.90;999.90;;;8.70;99.90;;;;;;5015675;28;20182;-68
2022/04/26 07:12:14;;;;;;;1999.90;999.90;;;8.70;99.90;;;;;;5015497;28;20177;-68
2022/04/26 07:14:40;;;;;;;1999.90;999.90;;;8.70;99.90;;;;;;5015414;28;20180;-68
2022/04/26 07:17:06;;;;;;;1999.90;999.90;;;8.70;99.90;;;;;;5015916;28;20202;-68
2022/04/26 07:19:35;;;;;;;1999.90;999.90;;;8.70;99.90;;;;;;5015271;28;20582;-68
2022/04/26 07:22:05;;;;;;;1999.90;999.90;;;8.80;99.90;;;;;;5014947;28;20172;-68
2022/04/26 07:24:31;;;;;;;1999.90;999.90;;;8.80;99.90;;;;;;5014663;28;20403;-68
2022/04/26 07:26:57;;;;;;;1999.90;999.90;;;8.90;99.90;;;;;;5014203;28;20924;-68
2022/04/26 07:29:22;;;;;;;1999.90;999.90;;;9.00;99.90;;;;;;5014693;28;20406;-68
2022/04/26 07:31:48;;;;;;;1999.90;999.90;;;9.00;99.90;;;;;;5014767;28;20251;-67
2022/04/26 07:34:23;;;;;;;1999.90;999.90;;;9.00;99.90;;;;;;5014417;28;20176;-68
2022/04/26 07:36:54;;;;;;;1999.90;999.90;;;9.00;99.90;;;;;;5014674;28;20207;-68
2022/04/26 07:39:20;;;;;;;1999.90;999.90;;;9.10;99.90;;;;;;5014522;28;20446;-68
2022/04/26 07:41:49;;;;;;;1999.90;999.90;;;9.20;99.90;;;;;;5014410;28;20442;-68
2022/04/26 07:44:15;;;;;;;1999.90;999.90;;;9.30;99.90;;;;;;5014275;28;20407;-68
2022/04/26 07:46:44;;;;;;;1999.90;999.90;;;9.40;99.90;;;;;;5014449;28;20406;-68
2022/04/26 07:49:11;;;;;;;1999.90;999.90;;;9.30;99.90;;;;;;5014522;28;20410;-68
2022/04/26 07:51:37;;;;;;;1999.90;999.90;;;9.40;99.90;;;;;;5014372;28;20406;-68
2022/04/26 07:54:04;;;;;;;1999.90;999.90;;;9.50;99.90;;;;;;5014111;28;20441;-68
2022/04/26 07:56:31;;;;;;;1999.90;999.90;;;9.60;99.90;;;;;;5014109;28;20239;-68
2022/04/26 07:58:58;;;;;;;1999.90;999.90;;;9.60;99.90;;;;;;5014361;28;20457;-68
2022/04/26 08:01:25;;;;;;;1999.90;999.90;;;9.80;99.90;;;;;;5014323;28;20481;-69
2022/04/26 08:03:51;;;;;;;1999.90;999.90;;;9.80;99.90;;;;;;5014276;28;20781;-69
2022/04/26 08:06:16;;;;;;;1999.90;999.90;;;9.80;99.90;;;;;;5013855;28;20409;-69
2022/04/26 08:08:42;;;;;;;1999.90;999.90;;;9.80;99.90;;;;;;5013892;28;20500;-68
2022/04/26 08:11:11;;;;;;;1999.90;999.90;;;9.90;99.90;;;;;;5013978;28;20222;-68
2022/04/26 08:13:38;;;;;;;1999.90;999.90;;;10.00;99.90;;;;;;5014164;28;20418;-69
2022/04/26 08:16:04;;;;;;;1999.90;999.90;;;10.10;99.90;;;;;;5013644;28;20923;-69
2022/04/26 08:18:29;;;;;;;1999.90;999.90;;;10.20;99.90;;;;;;5013707;28;20450;-69
2022/04/26 08:20:55;;;;;;;1999.90;999.90;;;10.30;99.90;;;;;;5013790;28;20407;-69
2022/04/26 08:23:21;;;;;;;1999.90;999.90;;;10.30;99.90;;;;;;5013665;28;20175;-68
2022/04/26 08:28:33;;;;;;;1999.90;999.90;;;10.30;99.90;;;;;;5013875;28;20333;-69
2022/04/26 08:31:00;;;;;;;1999.90;999.90;;;10.30;99.90;;;;;;5013795;28;20430;-68
2022/04/26 08:33:27;;;;;;;1999.90;999.90;;;10.30;99.90;;;;;;5013596;28;20415;-69
2022/04/26 08:35:53;;;;;;;1999.90;999.90;;;10.20;99.90;;;;;;5013323;28;20413;-68
2022/04/26 08:38:19;;;;;;;1999.90;999.90;;;10.10;99.90;;;;;;5073119;22;20498;-73
2022/04/26 08:40:45;;;;;;;1999.90;999.90;;;10.20;99.90;;;;;;5053148;28;20440;-73
2022/04/26 08:43:11;;;;;;;1999.90;999.90;;;10.10;99.90;;;;;;5053103;28;20921;-73
2022/04/26 08:45:41;;;;;;;1999.90;999.90;;;9.90;99.90;;;;;;5052778;28;20181;-73
2022/04/26 08:51:04;;;;;;;1999.90;999.90;;;9.90;99.90;;;;;;5053043;28;20403;-73
2022/04/26 08:53:32;;;;;;;1999.90;999.90;;;9.90;99.90;;;;;;5052946;28;20774;-73
2022/04/26 08:56:01;;;;;;;1999.90;999.90;;;9.80;99.90;;;;;;5052572;28;20405;-73
2022/04/26 08:58:31;;;;;;;1999.90;999.90;;;9.70;99.90;;;;;;5052633;28;20594;-73
2022/04/26 09:01:14;;;;;;;1999.90;999.90;;;9.60;99.90;;;;;;5052681;28;20413;-73
2022/04/26 09:03:54;;;;;;;1999.90;999.90;;;9.60;99.90;;;;;;5052784;28;20401;-73
2022/04/26 09:06:30;;;;;;;1999.90;999.90;;;9.80;99.90;;;;;;5052575;28;20466;-73
2022/04/26 09:09:07;;;;;;;1999.90;999.90;;;9.80;99.90;;;;;;5052562;28;20803;-74
2022/04/26 09:11:34;;;;;;;1999.90;999.90;;;9.80;99.90;;;;;;5052571;28;20407;-74
2022/04/26 09:14:02;;;;;;;1999.90;999.90;;;9.80;99.90;;;;;;5052412;28;20937;-73
2022/04/26 09:16:27;;;;;;;1999.90;999.90;;;9.80;99.90;;;;;;5052503;28;20405;-73
2022/04/26 09:18:59;;;;;;;1999.90;999.90;;;9.80;99.90;;;;;;5052324;28;20451;-73
2022/04/26 09:21:29;;;;;;;1999.90;999.90;;;9.80;99.90;;;;;;5052397;28;20169;-74
2022/04/26 09:24:03;;;;;;;1999.90;999.90;;;9.80;99.90;;;;;;5055479;28;20400;-73
2022/04/26 09:26:37;;;;;;;1999.90;999.90;;;9.80;99.90;;;;;;5056427;28;20465;-74
2022/04/26 09:29:04;;;;;;;1999.90;999.90;;;9.80;99.90;;;;;;5056531;28;20958;-74
2022/04/26 09:31:33;;;;;;;1999.90;999.90;;;9.80;99.90;;;;;;5056569;28;20413;-74
2022/04/26 09:34:06;;;;;;;1999.90;999.90;;;9.90;99.90;;;;;;5057392;28;20420;-77
2022/04/26 09:36:42;;;;;;;1999.90;999.90;;;9.90;99.90;;;;;;5054811;28;20417;-74
2022/04/26 09:39:08;;;;;;;1999.90;999.90;;;10.00;99.90;;;;;;5056309;28;20899;-74
2022/04/26 09:41:35;;;;;;;1999.90;999.90;;;10.20;99.90;;;;;;5055683;28;20984;-74
2022/04/26 09:44:04;;;;;;;1999.90;999.90;;;10.40;99.90;;;;;;5056518;28;20405;-76
2022/04/26 09:46:47;;;;;;;1999.90;999.90;;;10.50;99.90;;;;;;5054781;28;20434;-74
2022/04/26 09:49:18;;;;;;;1999.90;999.90;;;10.50;99.90;;;;;;5056102;28;20440;-74
2022/04/26 09:51:45;;;;;;;1999.90;999.90;;;10.50;99.90;;;;;;5056777;28;20410;-74
2022/04/26 09:54:11;;;;;;;1999.90;999.90;;;10.40;99.90;;;;;;5042630;28;20422;-73
2022/04/26 09:56:38;;;;;;;1999.90;999.90;;;10.50;99.90;;;;;;5032541;28;20445;-72
2022/04/26 09:59:04;;;;;;;1999.90;999.90;;;10.60;99.90;;;;;;5032358;28;20191;-72
2022/04/26 10:01:43;;;;;;;1999.90;999.90;;;10.70;99.90;;;;;;5031969;28;20421;-71
2022/04/26 10:04:15;;;;;;;1999.90;999.90;;;10.70;99.90;;;;;;5027173;28;20411;-72
2022/04/26 10:06:43;;;;;;;1999.90;999.90;;;10.70;99.90;;;;;;5030297;28;21109;-73
2022/04/26 10:09:10;;;;;;;1999.90;999.90;;;10.80;99.90;;;;;;5031272;28;20432;-71
2022/04/26 10:11:37;;;;;;;1999.90;999.90;;;10.80;99.90;;;;;;5030816;28;20445;-71
2022/04/26 10:14:10;;;;;;;1999.90;999.90;;;10.90;99.90;;;;;;5031119;28;20406;-73
2022/04/26 10:16:38;;;;;;;1999.90;999.90;;;10.80;99.90;;;;;;5031236;28;20410;-72
2022/04/26 10:19:08;;;;;;;1999.90;999.90;;;10.80;99.90;;;;;;5030899;28;20824;-74
2022/04/26 10:21:39;;;;;;;1999.90;999.90;;;10.80;99.90;;;;;;5031480;28;20402;-74
2022/04/26 10:24:10;;;;;;;1999.90;999.90;;;10.80;99.90;;;;;;5030838;28;20403;-74
2022/04/26 10:26:36;;;;;;;1999.90;999.90;;;10.90;99.90;;;;;;5029217;28;20498;-74
2022/04/26 10:29:08;;;;;;;1999.90;999.90;;;11.00;99.90;;;;;;5031558;28;20442;-72
2022/04/26 10:31:40;;;;;;;1999.90;999.90;;;11.10;99.90;;;;;;5031108;28;20704;-73
2022/04/26 10:34:17;;;;;;;1999.90;999.90;;;11.30;99.90;;;;;;5030372;28;20406;-73
2022/04/26 10:36:44;;;;;;;1999.90;999.90;;;11.60;99.90;;;;;;5031042;28;20434;-73
2022/04/26 10:39:12;;;;;;;1999.90;999.90;;;11.80;99.90;;;;;;5031192;28;21058;-72
2022/04/26 10:41:43;;;;;;;1999.90;999.90;;;12.10;99.90;;;;;;5038199;28;20413;-73
2022/04/26 10:44:15;;;;;;;1999.90;999.90;;;12.10;99.90;;;;;;5048995;28;20868;-73
2022/04/26 10:46:50;;;;;;;1999.90;999.90;;;12.20;99.90;;;;;;5051603;28;20791;-72
2022/04/26 10:49:25;;;;;;;1999.90;999.90;;;12.20;99.90;;;;;;5053553;28;20433;-72
2022/04/26 10:51:57;;;;;;;1999.90;999.90;;;12.10;99.90;;;;;;5053954;28;20869;-71
2022/04/26 10:57:26;;;;;;;1999.90;999.90;;;11.70;99.90;;;;;;5051748;28;20422;-72
2022/04/26 10:59:54;;;;;;;1999.90;999.90;;;11.70;99.90;;;;;;5051122;28;20454;-72
2022/04/26 11:02:21;;;;;;;1999.90;999.90;;;11.50;99.90;;;;;;5052366;28;20773;-74
2022/04/26 11:04:54;;;;;;;1999.90;999.90;;;11.50;99.90;;;;;;5054390;28;20399;-74
2022/04/26 11:07:25;;;;;;;1999.90;999.90;;;11.60;99.90;;;;;;5054332;28;20394;-73
2022/04/26 11:09:54;;;;;;;1999.90;999.90;;;11.60;99.90;;;;;;5054369;28;20402;-74
2022/04/26 11:12:30;;;;;;;1999.90;999.90;;;11.60;99.90;;;;;;5054557;28;20406;-74
2022/04/26 11:15:00;;;;;;;1999.90;999.90;;;11.70;99.90;;;;;;5058905;28;21153;-73
2022/04/26 11:17:27;;;;;;;1999.90;999.90;;;11.90;99.90;;;;;;5058657;28;20945;-73
2022/04/26 11:19:54;;;;;;;1999.90;999.90;;;12.10;99.90;;;;;;5059655;28;20458;-72
2022/04/26 11:22:21;;;;;;;1999.90;999.90;;;12.40;99.90;;;;;;5058453;28;20795;-71
2022/04/26 11:30:29;;;;;;;1999.90;999.90;;;12.40;99.90;;;;;;5034398;28;20966;-71
2022/04/26 11:33:19;;;;;;;1999.90;999.90;;;12.30;99.90;;;;;;5034115;28;20818;-72
2022/04/26 11:35:54;;;;;;;1999.90;999.90;;;12.40;99.90;;;;;;5030644;28;20427;-73
2022/04/26 11:38:20;;;;;;;1999.90;999.90;;;12.40;99.90;;;;;;5037877;28;20485;-72
2022/04/26 11:40:52;;;;;;;1999.90;999.90;;;12.50;99.90;;;;;;5034626;28;20863;-73
2022/04/26 11:43:21;;;;;;;1999.90;999.90;;;12.80;99.90;;;;;;5035181;28;20170;-72
2022/04/26 11:45:48;;;;;;;1999.90;999.90;;;12.90;99.90;;;;;;5035695;28;20793;-72
2022/04/26 11:48:15;;;;;;;1999.90;999.90;;;12.90;99.90;;;;;;5035633;28;20455;-71
2022/04/26 11:50:43;;;;;;;1999.90;999.90;;;12.70;99.90;;;;;;5034390;28;20407;-72
2022/04/26 11:53:10;;;;;;;1999.90;999.90;;;12.60;99.90;;;;;;5034179;28;20412;-72
2022/04/26 11:55:38;;;;;;;1999.90;999.90;;;12.50;99.90;;;;;;5033170;28;20459;-73
2022/04/26 11:58:19;;;;;;;1999.90;999.90;;;12.40;99.90;;;;;;5034627;28;20800;-73
2022/04/26 12:01:02;;;;;;;1999.90;999.90;;;12.40;99.90;;;;;;5041380;28;20413;-73
2022/04/26 12:03:40;;;;;;;1999.90;999.90;;;12.60;99.90;;;;;;5051950;28;20832;-73
2022/04/26 12:06:08;;;;;;;1999.90;999.90;;;12.70;99.90;;;;;;5050659;28;20466;-73
2022/04/26 12:08:46;;;;;;;1999.90;999.90;;;12.60;99.90;;;;;;5050466;28;20429;-73
2022/04/26 12:11:18;;;;;;;1999.90;999.90;;;12.50;99.90;;;;;;5050339;28;20839;-73
2022/04/26 12:13:44;;;;;;;1999.90;999.90;;;12.60;99.90;;;;;;5050598;28;20420;-73
2022/04/26 12:16:14;;;;;;;1999.90;999.90;;;12.50;99.90;;;;;;5050785;28;20448;-73
2022/04/26 12:18:51;;;;;;;1999.90;999.90;;;12.60;99.90;;;;;;5050437;28;20994;-73
2022/04/26 12:21:18;;;;;;;1999.90;999.90;;;12.70;99.90;;;;;;5049716;28;20405;-73
2022/04/26 12:23:44;;;;;;;1999.90;999.90;;;13.00;99.90;;;;;;5048206;28;20417;-73
2022/04/26 12:26:10;;;;;;;1999.90;999.90;;;13.60;99.90;;;;;;5049779;28;20416;-73
2022/04/26 12:28:49;;;;;;;1999.90;999.90;;;13.90;99.90;;;;;;5051221;28;20426;-73
2022/04/26 12:35:20;;;;;;;1999.90;999.90;;;15.30;99.90;;;;;;5049125;28;20409;-73
2022/04/26 12:37:46;;;;;;;1999.90;999.90;;;15.50;99.90;;;;;;5108041;22;20487;-73
2022/04/26 12:40:50;;;;;;;1999.90;999.90;;;15.70;99.90;;;;;;5029726;28;20428;-73
2022/04/26 12:43:32;;;;;;;1999.90;999.90;;;16.00;99.90;;;;;;5029450;28;20232;-73
2022/04/26 12:46:02;;;;;;;1999.90;999.90;;;15.90;99.90;;;;;;5028951;28;20405;-73
2022/04/26 12:51:52;;;;;;;1999.90;999.90;;;15.30;99.90;;;;;;5080863;28;20422;-73
2022/04/26 12:54:29;;;;;;;1999.90;999.90;;;15.00;99.90;;;;;;5089089;28;20514;-73
2022/04/26 12:57:12;;;;;;;1999.90;999.90;;;15.30;99.90;;;;;;5089757;28;20417;-73
2022/04/26 13:00:40;;;;;;;1999.90;999.90;;;15.90;99.90;;;;;;5039693;28;20474;-73
2022/04/26 13:03:06;;;;;;;1999.90;999.90;;;17.00;99.90;;;;;;5067941;28;20426;-73
2022/04/26 13:06:01;;;;;;;1999.90;999.90;;;18.00;99.90;;;;;;5068963;28;20408;-72
2022/04/26 13:08:26;;;;;;;1999.90;999.90;;;18.40;99.90;;;;;;5028292;28;20439;-73
2022/04/26 13:10:53;;;;;;;1999.90;999.90;;;18.40;99.90;;;;;;5051105;28;20532;-73
2022/04/26 13:13:19;;;;;;;1999.90;999.90;;;19.10;99.90;;;;;;5069007;28;20759;-72
2022/04/26 13:15:44;;;;;;;1999.90;999.90;;;18.70;99.90;;;;;;5067860;28;20503;-72
2022/04/26 13:18:14;;;;;;;1999.90;999.90;;;18.30;99.90;;;;;;5068708;28;20207;-73
2022/04/26 13:20:39;;;;;;;1999.90;999.90;;;17.50;99.90;;;;;;5068780;28;20219;-73
2022/04/26 13:23:05;;;;;;;1999.90;999.90;;;16.70;99.90;;;;;;5068269;28;20830;-73
2022/04/26 13:25:31;;;;;;;1999.90;999.90;;;16.30;99.90;;;;;;5049666;28;20181;-73
2022/04/26 13:27:56;;;;;;;1999.90;999.90;;;16.90;99.90;;;;;;5068172;28;20194;-73
2022/04/26 13:30:24;;;;;;;1999.90;999.90;;;17.30;99.90;;;;;;5067958;28;20180;-73
2022/04/26 13:32:50;;;;;;;1999.90;999.90;;;18.10;99.90;;;;;;5068643;28;20169;-73
2022/04/26 13:35:15;;;;;;;1999.90;999.90;;;19.00;99.90;;;;;;5067661;28;20539;-74
2022/04/26 13:37:43;;;;;;;1999.90;999.90;;;19.30;99.90;;;;;;5067827;28;20526;-73
2022/04/26 13:40:09;;;;;;;1999.90;999.90;;;19.50;99.90;;;;;;5068606;28;20198;-73
2022/04/26 13:42:35;;;;;;;1999.90;999.90;;;19.50;99.90;;;;;;5068230;28;20423;-73
2022/04/26 13:45:02;;;;;;;1999.90;999.90;;;19.70;99.90;;;;;;5066812;28;20419;-73
2022/04/26 13:47:28;;;;;;;1999.90;999.90;;;20.30;99.90;;;;;;5068031;28;20504;-73
2022/04/26 13:49:53;;;;;;;1999.90;999.90;;;20.20;99.90;;;;;;5067755;28;20444;-73
2022/04/26 13:52:20;;;;;;;1999.90;999.90;;;20.50;99.90;;;;;;5067540;28;20529;-73
2022/04/26 13:54:47;;;;;;;1999.90;999.90;;;19.80;99.90;;;;;;5067294;28;20178;-70
2022/04/26 13:57:13;;;;;;;1999.90;999.90;;;19.20;99.90;;;;;;5067880;28;20422;-71
2022/04/26 13:59:38;;;;;;;1999.90;999.90;;;18.60;99.90;;;;;;5067209;28;20456;-72
2022/04/26 14:02:06;;;;;;;1999.90;999.90;;;17.90;99.90;;;;;;5067572;28;20405;-73
2022/04/26 14:04:32;;;;;;;1999.90;999.90;;;17.20;99.90;;;;;;5066368;28;20205;-73
2022/04/26 14:06:58;;;;;;;1999.90;999.90;;;16.70;99.90;;;;;;5067001;28;20430;-72
2022/04/26 14:09:23;;;;;;;1999.90;999.90;;;16.30;99.90;;;;;;5067426;28;20423;-73
2022/04/26 14:11:51;;;;;;;1999.90;999.90;;;16.10;99.90;;;;;;5067183;28;20549;-74
2022/04/26 14:22:32;;;;;;;1999.90;999.90;;;18.20;99.90;;;;;;5066837;28;20409;-74
2022/04/26 14:25:04;;;;;;;1999.90;999.90;;;17.80;99.90;;;;;;5066039;28;20423;-74
2022/04/26 14:27:32;;;;;;;1999.90;999.90;;;17.40;99.90;;;;;;5066538;28;20444;-74
2022/04/26 14:29:59;;;;;;;1999.90;999.90;;;16.80;99.90;;;;;;5067173;28;20414;-73
2022/04/26 14:32:24;;;;;;;1999.90;999.90;;;16.40;99.90;;;;;;5067208;28;20910;-72
2022/04/26 14:34:50;;;;;;;1999.90;999.90;;;16.00;99.90;;;;;;5065938;28;20431;-73
2022/04/26 14:37:16;;;;;;;1999.90;999.90;;;15.40;99.90;;;;;;5069310;28;20270;-73
2022/04/26 14:39:42;;;;;;;1999.90;999.90;;;15.20;99.90;;;;;;5085961;22;20496;-68
2022/04/26 14:42:08;;;;;;;1999.90;999.90;;;15.10;99.90;;;;;;5072084;28;20906;-68
2022/04/26 14:44:35;;;;;;;1999.90;999.90;;;15.00;99.90;;;;;;5072153;28;20920;-67
2022/04/26 14:47:04;;;;;;;1999.90;999.90;;;14.70;99.90;;;;;;5071369;28;20844;-67
2022/04/26 14:49:30;;;;;;;1999.90;999.90;;;14.50;99.90;;;;;;5072088;28;20435;-67
2022/04/26 14:51:56;;;;;;;1999.90;999.90;;;14.50;99.90;;;;;;5072344;28;21142;-67
2022/04/26 14:54:22;;;;;;;1999.90;999.90;;;14.70;99.90;;;;;;5071537;28;20429;-67
2022/04/26 14:56:48;;;;;;;1999.90;999.90;;;14.90;99.90;;;;;;5071532;28;20175;-67
2022/04/26 14:59:18;;;;;;;1999.90;999.90;;;15.20;99.90;;;;;;5071538;28;20464;-68
2022/04/26 15:01:46;;;;;;;1999.90;999.90;;;15.70;99.90;;;;;;5071480;28;20848;-67
2022/04/26 15:04:13;;;;;;;1999.90;999.90;;;16.40;99.90;;;;;;5070929;28;20912;-67
2022/04/26 15:06:39;;;;;;;1999.90;999.90;;;17.60;99.90;;;;;;5071856;28;20424;-68
2022/04/26 15:16:37;;;;;;;1999.90;999.90;;;21.20;99.90;;;;;;5073021;28;21319;-68
2022/04/26 15:17:19;;;;;;;1999.90;999.90;;;22.60;99.90;;;;;;5070933;28;20426;-68
2022/04/26 15:19:44;;;;;;;1999.90;999.90;;;23.20;99.90;;;;;;5071327;28;20517;-68
2022/04/26 15:22:11;;;;;;;1999.90;999.90;;;24.10;96.20;;;;;;5070633;28;20185;-68
2022/04/26 15:24:37;;;;;;;1999.90;999.90;;;24.60;91.00;;;;;;5071028;28;20182;-68
2022/04/26 15:27:02;;;;;;;1999.90;999.90;;;24.90;77.40;;;;;;5071881;28;20544;-67
2022/04/26 15:29:28;;;;;;;1999.90;999.90;;;24.60;71.20;;;;;;5071844;28;20213;-68
2022/04/26 15:31:54;;;;;;;1999.90;999.90;;;23.50;74.80;;;;;;5072247;28;20181;-68
2022/04/26 15:34:19;;;;;;;1999.90;999.90;;;22.00;77.00;;;;;;5069910;28;20179;-68
2022/04/26 15:36:45;;;;;;;1999.90;999.90;;;20.80;86.10;;;;;;5070306;28;20214;-68
2022/04/26 15:39:10;;;;;;;1999.90;999.90;;;19.90;93.90;;;;;;5070179;28;20205;-68
2022/04/26 15:41:36;;;;;;;1999.90;999.90;;;18.90;99.70;;;;;;5070559;28;20203;-68
2022/04/26 15:44:03;;;;;;;1999.90;999.90;;;18.10;99.90;;;;;;5070153;28;20242;-67
2022/04/26 15:46:28;;;;;;;1999.90;999.90;;;17.50;99.90;;;;;;5070855;28;20640;-67
2022/04/26 15:48:55;;;;;;;1999.90;999.90;;;17.10;99.90;;;;;;5069808;28;20516;-68
2022/04/26 15:51:22;;;;;;;1999.90;999.90;;;16.80;99.90;;;;;;5070528;28;20198;-67
2022/04/26 15:53:48;;;;;;;1999.90;999.90;;;16.50;99.90;;;;;;5070662;28;20523;-67
2022/04/26 15:56:14;;;;;;;1999.90;999.90;;;16.30;99.90;;;;;;5070437;28;20504;-68
2022/04/26 15:58:41;;;;;;;1999.90;999.90;;;16.30;99.90;;;;;;5069760;28;20298;-68
2022/04/26 16:01:06;;;;;;;1999.90;999.90;;;16.20;99.90;;;;;;5070430;28;20451;-68
2022/04/26 16:03:32;;;;;;;1999.90;999.90;;;16.20;99.90;;;;;;5070124;28;20511;-68
2022/04/26 16:05:57;;;;;;;1999.90;999.90;;;16.00;99.90;;;;;;5068443;28;20257;-67
2022/04/26 16:08:23;;;;;;;1999.90;999.90;;;15.80;99.90;;;;;;5069667;28;20194;-67
2022/04/26 16:21:45;;;;;;;1999.90;999.90;;;14.70;99.90;;;;;;5070484;28;20492;-68
2022/04/26 16:24:10;;;;;;;1999.90;999.90;;;14.60;99.90;;;;;;5076048;28;20496;-68
2022/04/26 16:26:36;;;;;;;1999.90;999.90;;;14.50;99.90;;;;;;5073576;28;20227;-67
2022/04/26 16:29:04;;;;;;;1999.90;999.90;;;14.50;99.90;;;;;;5073494;28;20194;-68
2022/04/26 16:31:32;;;;;;;1999.90;999.90;;;14.30;99.90;;;;;;5073216;28;20427;-68